sensor_id;sensor_type;location;lat;lon;timestamp;P1;durP1;ratioP1;P2;durP2;ratioP2
59072;SDS011;44859;51.934;15.554;2023-05-01T00:01:29;12.70;;;4.50;;
59072;SDS011;44859;51.934;15.554;2023-05-01T00:03:58;15.00;;;4.70;;
59072;SDS011;44859;51.934;15.554;2023-05-01T00:06:38;12.40;;;4.70;;
59072;SDS011;44859;51.934;15.554;2023-05-01T00:09:08;11.80;;;4.40;;
59072;SDS011;44859;51.934;15.554;2023-05-01T00:11:59;13.20;;;4.60;;
59072;SDS011;44859;51.934;15.554;2023-05-01T00:17:28;14.40;;;4.70;;
59072;SDS011;44859;51.934;15.554;2023-05-01T00:20:01;14.90;;;5.00;;
59072;SDS011;44859;51.934;15.554;2023-05-01T00:22:34;14.50;;;4.90;;
59072;SDS011;44859;51.934;15.554;2023-05-01T00:25:06;14.50;;;5.10;;
59072;SDS011;44859;51.934;15.554;2023-05-01T00:27:37;13.20;;;5.30;;
59072;SDS011;44859;51.934;15.554;2023-05-01T00:30:28;14.30;;;5.00;;
59072;SDS011;44859;51.934;15.554;2023-05-01T00:32:59;14.30;;;5.30;;
59072;SDS011;44859;51.934;15.554;2023-05-01T00:35:31;12.00;;;4.90;;
59072;SDS011;44859;51.934;15.554;2023-05-01T00:38:10;13.40;;;5.10;;
59072;SDS011;44859;51.934;15.554;2023-05-01T00:40:56;12.40;;;4.90;;
59072;SDS011;44859;51.934;15.554;2023-05-01T00:43:28;13.50;;;5.60;;
59072;SDS011;44859;51.934;15.554;2023-05-01T00:45:56;16.10;;;5.50;;
59072;SDS011;44859;51.934;15.554;2023-05-01T00:48:25;15.10;;;5.20;;
59072;SDS011;44859;51.934;15.554;2023-05-01T00:50:57;14.50;;;5.40;;
59072;SDS011;44859;51.934;15.554;2023-05-01T00:53:50;17.10;;;5.80;;
59072;SDS011;44859;51.934;15.554;2023-05-01T00:56:21;14.80;;;5.60;;
59072;SDS011;44859;51.934;15.554;2023-05-01T00:58:59;16.90;;;6.30;;
59072;SDS011;44859;51.934;15.554;2023-05-01T01:02:01;15.70;;;6.10;;
59072;SDS011;44859;51.934;15.554;2023-05-01T01:04:30;16.30;;;6.20;;
59072;SDS011;44859;51.934;15.554;2023-05-01T01:07:17;15.60;;;6.30;;
59072;SDS011;44859;51.934;15.554;2023-05-01T01:10:09;17.00;;;6.60;;
59072;SDS011;44859;51.934;15.554;2023-05-01T01:13:07;17.20;;;6.40;;
59072;SDS011;44859;51.934;15.554;2023-05-01T01:16:27;16.00;;;6.40;;
59072;SDS011;44859;51.934;15.554;2023-05-01T01:22:52;17.20;;;7.20;;
59072;SDS011;44859;51.934;15.554;2023-05-01T01:35:25;16.50;;;6.60;;
59072;SDS011;44859;51.934;15.554;2023-05-01T01:38:00;16.90;;;6.50;;
59072;SDS011;44859;51.934;15.554;2023-05-01T01:40:58;17.20;;;6.90;;
59072;SDS011;44859;51.934;15.554;2023-05-01T01:43:53;16.50;;;6.50;;
59072;SDS011;44859;51.934;15.554;2023-05-01T01:46:53;16.50;;;6.50;;
59072;SDS011;44859;51.934;15.554;2023-05-01T01:49:55;15.50;;;6.70;;
59072;SDS011;44859;51.934;15.554;2023-05-01T01:52:29;16.00;;;7.10;;
59072;SDS011;44859;51.934;15.554;2023-05-01T01:55:04;15.60;;;7.20;;
59072;SDS011;44859;51.934;15.554;2023-05-01T01:57:36;18.20;;;7.70;;
59072;SDS011;44859;51.934;15.554;2023-05-01T02:00:15;18.80;;;7.50;;
59072;SDS011;44859;51.934;15.554;2023-05-01T02:02:45;19.70;;;7.90;;
59072;SDS011;44859;51.934;15.554;2023-05-01T02:05:19;18.40;;;7.90;;
59072;SDS011;44859;51.934;15.554;2023-05-01T02:07:51;17.50;;;7.60;;
59072;SDS011;44859;51.934;15.554;2023-05-01T02:10:33;18.00;;;8.00;;
59072;SDS011;44859;51.934;15.554;2023-05-01T02:13:13;20.00;;;7.80;;
59072;SDS011;44859;51.934;15.554;2023-05-01T02:15:45;18.10;;;7.80;;
59072;SDS011;44859;51.934;15.554;2023-05-01T02:18:18;20.00;;;8.30;;
59072;SDS011;44859;51.934;15.554;2023-05-01T02:21:12;18.60;;;7.90;;
59072;SDS011;44859;51.934;15.554;2023-05-01T02:23:51;19.90;;;8.60;;
59072;SDS011;44859;51.934;15.554;2023-05-01T02:27:02;19.50;;;8.20;;
59072;SDS011;44859;51.934;15.554;2023-05-01T02:29:41;18.20;;;7.70;;
59072;SDS011;44859;51.934;15.554;2023-05-01T02:32:31;18.10;;;7.90;;
59072;SDS011;44859;51.934;15.554;2023-05-01T02:35:06;21.20;;;8.80;;
59072;SDS011;44859;51.934;15.554;2023-05-01T02:38:02;20.10;;;8.00;;
59072;SDS011;44859;51.934;15.554;2023-05-01T02:40:30;19.10;;;8.30;;
59072;SDS011;44859;51.934;15.554;2023-05-01T02:43:01;18.50;;;8.80;;
59072;SDS011;44859;51.934;15.554;2023-05-01T02:45:34;18.60;;;8.40;;
59072;SDS011;44859;51.934;15.554;2023-05-01T02:48:29;20.00;;;8.80;;
59072;SDS011;44859;51.934;15.554;2023-05-01T02:53:45;19.90;;;9.30;;
59072;SDS011;44859;51.934;15.554;2023-05-01T02:56:35;19.60;;;9.20;;
59072;SDS011;44859;51.934;15.554;2023-05-01T02:59:32;19.40;;;8.20;;
59072;SDS011;44859;51.934;15.554;2023-05-01T03:02:02;19.80;;;9.10;;
59072;SDS011;44859;51.934;15.554;2023-05-01T03:04:54;19.60;;;8.90;;
59072;SDS011;44859;51.934;15.554;2023-05-01T03:07:42;19.80;;;8.80;;
59072;SDS011;44859;51.934;15.554;2023-05-01T03:10:39;19.10;;;8.70;;
59072;SDS011;44859;51.934;15.554;2023-05-01T03:13:10;18.10;;;8.30;;
59072;SDS011;44859;51.934;15.554;2023-05-01T03:16:10;18.60;;;8.30;;
59072;SDS011;44859;51.934;15.554;2023-05-01T03:19:10;23.40;;;11.30;;
59072;SDS011;44859;51.934;15.554;2023-05-01T03:22:10;20.40;;;9.60;;
59072;SDS011;44859;51.934;15.554;2023-05-01T03:24:49;19.10;;;8.70;;
59072;SDS011;44859;51.934;15.554;2023-05-01T03:27:21;18.40;;;8.10;;
59072;SDS011;44859;51.934;15.554;2023-05-01T03:30:22;18.90;;;8.20;;
59072;SDS011;44859;51.934;15.554;2023-05-01T03:33:16;17.80;;;8.00;;
59072;SDS011;44859;51.934;15.554;2023-05-01T03:38:16;18.80;;;7.80;;
59072;SDS011;44859;51.934;15.554;2023-05-01T03:40:56;18.40;;;7.70;;
59072;SDS011;44859;51.934;15.554;2023-05-01T03:46:01;16.90;;;7.50;;
59072;SDS011;44859;51.934;15.554;2023-05-01T03:48:43;18.00;;;7.00;;
59072;SDS011;44859;51.934;15.554;2023-05-01T03:51:42;18.10;;;7.30;;
59072;SDS011;44859;51.934;15.554;2023-05-01T03:54:16;17.40;;;7.20;;
59072;SDS011;44859;51.934;15.554;2023-05-01T03:57:05;17.30;;;7.30;;
59072;SDS011;44859;51.934;15.554;2023-05-01T03:59:38;17.90;;;7.50;;
59072;SDS011;44859;51.934;15.554;2023-05-01T04:02:33;16.00;;;7.30;;
59072;SDS011;44859;51.934;15.554;2023-05-01T04:05:03;18.10;;;7.40;;
59072;SDS011;44859;51.934;15.554;2023-05-01T04:07:57;16.30;;;6.70;;
59072;SDS011;44859;51.934;15.554;2023-05-01T04:12:56;19.20;;;7.30;;
59072;SDS011;44859;51.934;15.554;2023-05-01T04:15:27;18.30;;;7.50;;
59072;SDS011;44859;51.934;15.554;2023-05-01T04:18:16;19.50;;;7.70;;
59072;SDS011;44859;51.934;15.554;2023-05-01T04:21:11;16.80;;;7.10;;
59072;SDS011;44859;51.934;15.554;2023-05-01T04:23:51;17.20;;;8.00;;
59072;SDS011;44859;51.934;15.554;2023-05-01T04:26:22;19.90;;;7.30;;
59072;SDS011;44859;51.934;15.554;2023-05-01T04:28:51;18.90;;;7.90;;
59072;SDS011;44859;51.934;15.554;2023-05-01T04:31:20;16.80;;;6.80;;
59072;SDS011;44859;51.934;15.554;2023-05-01T04:34:30;17.90;;;7.60;;
59072;SDS011;44859;51.934;15.554;2023-05-01T04:37:11;18.90;;;7.70;;
59072;SDS011;44859;51.934;15.554;2023-05-01T04:39:42;16.80;;;8.10;;
59072;SDS011;44859;51.934;15.554;2023-05-01T04:45:02;19.80;;;8.10;;
59072;SDS011;44859;51.934;15.554;2023-05-01T04:47:55;19.50;;;7.40;;
59072;SDS011;44859;51.934;15.554;2023-05-01T04:50:44;18.10;;;7.40;;
59072;SDS011;44859;51.934;15.554;2023-05-01T04:53:16;16.90;;;7.20;;
59072;SDS011;44859;51.934;15.554;2023-05-01T04:56:09;16.90;;;7.30;;
59072;SDS011;44859;51.934;15.554;2023-05-01T04:58:40;17.60;;;7.40;;
59072;SDS011;44859;51.934;15.554;2023-05-01T05:01:35;17.80;;;6.90;;
59072;SDS011;44859;51.934;15.554;2023-05-01T05:04:06;17.00;;;7.90;;
59072;SDS011;44859;51.934;15.554;2023-05-01T05:06:35;19.20;;;7.80;;
59072;SDS011;44859;51.934;15.554;2023-05-01T05:11:57;19.20;;;7.60;;
59072;SDS011;44859;51.934;15.554;2023-05-01T05:14:49;17.30;;;7.70;;
59072;SDS011;44859;51.934;15.554;2023-05-01T05:19:56;17.80;;;7.20;;
59072;SDS011;44859;51.934;15.554;2023-05-01T05:22:35;18.20;;;7.10;;
59072;SDS011;44859;51.934;15.554;2023-05-01T05:27:46;17.90;;;7.30;;
59072;SDS011;44859;51.934;15.554;2023-05-01T05:33:19;17.00;;;7.40;;
59072;SDS011;44859;51.934;15.554;2023-05-01T05:35:59;18.30;;;8.00;;
59072;SDS011;44859;51.934;15.554;2023-05-01T05:38:45;20.30;;;8.50;;
59072;SDS011;44859;51.934;15.554;2023-05-01T05:41:15;16.50;;;7.40;;
59072;SDS011;44859;51.934;15.554;2023-05-01T05:43:44;19.90;;;8.80;;
59072;SDS011;44859;51.934;15.554;2023-05-01T05:46:21;18.60;;;8.00;;
59072;SDS011;44859;51.934;15.554;2023-05-01T05:52:02;18.30;;;7.90;;
59072;SDS011;44859;51.934;15.554;2023-05-01T05:54:54;17.70;;;7.60;;
59072;SDS011;44859;51.934;15.554;2023-05-01T05:57:23;19.60;;;8.10;;
59072;SDS011;44859;51.934;15.554;2023-05-01T05:59:57;20.20;;;7.90;;
59072;SDS011;44859;51.934;15.554;2023-05-01T06:02:54;19.10;;;7.80;;
59072;SDS011;44859;51.934;15.554;2023-05-01T06:05:31;16.90;;;7.30;;
59072;SDS011;44859;51.934;15.554;2023-05-01T06:08:07;17.50;;;7.00;;
59072;SDS011;44859;51.934;15.554;2023-05-01T06:10:53;17.70;;;7.30;;
59072;SDS011;44859;51.934;15.554;2023-05-01T06:13:42;20.10;;;9.90;;
59072;SDS011;44859;51.934;15.554;2023-05-01T06:16:14;27.30;;;14.00;;
59072;SDS011;44859;51.934;15.554;2023-05-01T06:18:44;17.10;;;7.50;;
59072;SDS011;44859;51.934;15.554;2023-05-01T06:21:16;18.00;;;7.30;;
59072;SDS011;44859;51.934;15.554;2023-05-01T06:23:48;15.70;;;6.90;;
59072;SDS011;44859;51.934;15.554;2023-05-01T06:26:19;16.60;;;6.90;;
59072;SDS011;44859;51.934;15.554;2023-05-01T06:28:49;19.50;;;7.70;;
59072;SDS011;44859;51.934;15.554;2023-05-01T06:31:22;18.90;;;9.20;;
59072;SDS011;44859;51.934;15.554;2023-05-01T06:34:09;15.60;;;6.70;;
59072;SDS011;44859;51.934;15.554;2023-05-01T06:36:37;18.20;;;6.90;;
59072;SDS011;44859;51.934;15.554;2023-05-01T06:39:46;14.00;;;6.00;;
59072;SDS011;44859;51.934;15.554;2023-05-01T06:42:17;14.40;;;6.10;;
59072;SDS011;44859;51.934;15.554;2023-05-01T06:45:08;14.50;;;6.00;;
59072;SDS011;44859;51.934;15.554;2023-05-01T06:47:42;17.20;;;7.60;;
59072;SDS011;44859;51.934;15.554;2023-05-01T06:53:07;17.90;;;6.60;;
59072;SDS011;44859;51.934;15.554;2023-05-01T06:55:49;14.60;;;6.00;;
59072;SDS011;44859;51.934;15.554;2023-05-01T06:58:17;15.00;;;6.70;;
59072;SDS011;44859;51.934;15.554;2023-05-01T07:03:34;13.60;;;5.90;;
59072;SDS011;44859;51.934;15.554;2023-05-01T07:06:16;14.60;;;5.90;;
59072;SDS011;44859;51.934;15.554;2023-05-01T07:09:01;14.20;;;5.90;;
59072;SDS011;44859;51.934;15.554;2023-05-01T07:11:50;14.30;;;6.00;;
59072;SDS011;44859;51.934;15.554;2023-05-01T07:14:19;14.80;;;5.70;;
59072;SDS011;44859;51.934;15.554;2023-05-01T07:16:50;16.20;;;6.80;;
59072;SDS011;44859;51.934;15.554;2023-05-01T07:19:33;15.10;;;6.60;;
59072;SDS011;44859;51.934;15.554;2023-05-01T07:22:43;14.40;;;5.70;;
59072;SDS011;44859;51.934;15.554;2023-05-01T07:25:35;13.10;;;5.40;;
59072;SDS011;44859;51.934;15.554;2023-05-01T07:28:12;14.40;;;5.90;;
59072;SDS011;44859;51.934;15.554;2023-05-01T07:30:42;12.70;;;5.20;;
59072;SDS011;44859;51.934;15.554;2023-05-01T07:33:11;14.50;;;5.60;;
59072;SDS011;44859;51.934;15.554;2023-05-01T07:35:39;12.50;;;5.30;;
59072;SDS011;44859;51.934;15.554;2023-05-01T07:38:22;14.90;;;5.60;;
59072;SDS011;44859;51.934;15.554;2023-05-01T07:40:53;16.90;;;6.40;;
59072;SDS011;44859;51.934;15.554;2023-05-01T07:43:25;15.00;;;5.60;;
59072;SDS011;44859;51.934;15.554;2023-05-01T07:46:14;13.70;;;5.10;;
59072;SDS011;44859;51.934;15.554;2023-05-01T07:48:42;13.60;;;5.30;;
59072;SDS011;44859;51.934;15.554;2023-05-01T07:51:38;12.80;;;5.40;;
59072;SDS011;44859;51.934;15.554;2023-05-01T07:54:24;14.10;;;5.90;;
59072;SDS011;44859;51.934;15.554;2023-05-01T07:56:55;14.10;;;5.60;;
59072;SDS011;44859;51.934;15.554;2023-05-01T07:59:24;12.20;;;4.80;;
59072;SDS011;44859;51.934;15.554;2023-05-01T08:05:01;14.20;;;5.30;;
59072;SDS011;44859;51.934;15.554;2023-05-01T08:07:36;10.30;;;4.50;;
59072;SDS011;44859;51.934;15.554;2023-05-01T08:10:25;14.00;;;5.40;;
59072;SDS011;44859;51.934;15.554;2023-05-01T08:13:03;14.20;;;5.20;;
59072;SDS011;44859;51.934;15.554;2023-05-01T08:15:59;12.00;;;4.90;;
59072;SDS011;44859;51.934;15.554;2023-05-01T08:18:49;12.80;;;4.80;;
59072;SDS011;44859;51.934;15.554;2023-05-01T08:21:21;11.00;;;4.20;;
59072;SDS011;44859;51.934;15.554;2023-05-01T08:23:59;10.70;;;4.20;;
59072;SDS011;44859;51.934;15.554;2023-05-01T08:26:28;11.00;;;4.40;;
59072;SDS011;44859;51.934;15.554;2023-05-01T08:29:12;12.40;;;4.60;;
59072;SDS011;44859;51.934;15.554;2023-05-01T08:34:31;11.90;;;4.20;;
59072;SDS011;44859;51.934;15.554;2023-05-01T08:37:00;12.30;;;4.50;;
59072;SDS011;44859;51.934;15.554;2023-05-01T08:39:34;10.60;;;4.60;;
59072;SDS011;44859;51.934;15.554;2023-05-01T08:42:03;11.30;;;5.00;;
59072;SDS011;44859;51.934;15.554;2023-05-01T08:44:37;11.30;;;4.80;;
59072;SDS011;44859;51.934;15.554;2023-05-01T08:47:18;12.70;;;4.90;;
59072;SDS011;44859;51.934;15.554;2023-05-01T08:49:55;11.70;;;4.00;;
59072;SDS011;44859;51.934;15.554;2023-05-01T08:52:32;12.00;;;4.30;;
59072;SDS011;44859;51.934;15.554;2023-05-01T08:55:04;10.40;;;4.50;;
59072;SDS011;44859;51.934;15.554;2023-05-01T08:57:48;9.90;;;3.80;;
59072;SDS011;44859;51.934;15.554;2023-05-01T09:00:19;10.10;;;3.80;;
59072;SDS011;44859;51.934;15.554;2023-05-01T09:02:49;9.50;;;3.90;;
59072;SDS011;44859;51.934;15.554;2023-05-01T09:05:20;15.10;;;6.40;;
59072;SDS011;44859;51.934;15.554;2023-05-01T09:10:20;10.50;;;4.30;;
59072;SDS011;44859;51.934;15.554;2023-05-01T09:12:55;8.90;;;4.10;;
59072;SDS011;44859;51.934;15.554;2023-05-01T09:15:38;13.90;;;4.60;;
59072;SDS011;44859;51.934;15.554;2023-05-01T09:18:17;10.40;;;4.10;;
59072;SDS011;44859;51.934;15.554;2023-05-01T09:21:14;12.90;;;4.90;;
59072;SDS011;44859;51.934;15.554;2023-05-01T09:23:57;11.10;;;4.60;;
59072;SDS011;44859;51.934;15.554;2023-05-01T09:26:35;13.10;;;4.60;;
59072;SDS011;44859;51.934;15.554;2023-05-01T09:29:40;12.40;;;4.60;;
59072;SDS011;44859;51.934;15.554;2023-05-01T09:32:17;10.70;;;4.30;;
59072;SDS011;44859;51.934;15.554;2023-05-01T09:35:08;14.20;;;4.90;;
59072;SDS011;44859;51.934;15.554;2023-05-01T09:37:48;10.90;;;4.10;;
59072;SDS011;44859;51.934;15.554;2023-05-01T09:40:26;11.30;;;3.90;;
59072;SDS011;44859;51.934;15.554;2023-05-01T09:42:55;13.10;;;4.60;;
59072;SDS011;44859;51.934;15.554;2023-05-01T09:45:47;10.50;;;4.40;;
59072;SDS011;44859;51.934;15.554;2023-05-01T09:48:32;14.40;;;5.40;;
59072;SDS011;44859;51.934;15.554;2023-05-01T09:54:18;12.30;;;5.00;;
59072;SDS011;44859;51.934;15.554;2023-05-01T09:56:54;13.30;;;6.00;;
59072;SDS011;44859;51.934;15.554;2023-05-01T09:59:27;13.40;;;5.60;;
59072;SDS011;44859;51.934;15.554;2023-05-01T10:01:58;13.50;;;5.20;;
59072;SDS011;44859;51.934;15.554;2023-05-01T10:04:30;13.60;;;5.40;;
59072;SDS011;44859;51.934;15.554;2023-05-01T10:07:12;12.40;;;5.20;;
59072;SDS011;44859;51.934;15.554;2023-05-01T10:09:41;12.30;;;4.90;;
59072;SDS011;44859;51.934;15.554;2023-05-01T10:12:36;12.30;;;4.90;;
59072;SDS011;44859;51.934;15.554;2023-05-01T10:15:35;11.80;;;5.10;;
59072;SDS011;44859;51.934;15.554;2023-05-01T10:18:09;10.90;;;4.40;;
59072;SDS011;44859;51.934;15.554;2023-05-01T10:20:41;12.00;;;4.30;;
59072;SDS011;44859;51.934;15.554;2023-05-01T10:23:16;11.00;;;3.90;;
59072;SDS011;44859;51.934;15.554;2023-05-01T10:25:45;10.70;;;4.10;;
59072;SDS011;44859;51.934;15.554;2023-05-01T10:28:16;11.70;;;4.30;;
59072;SDS011;44859;51.934;15.554;2023-05-01T10:30:52;10.20;;;3.90;;
59072;SDS011;44859;51.934;15.554;2023-05-01T10:33:22;11.50;;;3.90;;
59072;SDS011;44859;51.934;15.554;2023-05-01T10:35:53;10.90;;;4.70;;
59072;SDS011;44859;51.934;15.554;2023-05-01T10:38:25;9.50;;;3.60;;
59072;SDS011;44859;51.934;15.554;2023-05-01T10:41:01;11.90;;;4.30;;
59072;SDS011;44859;51.934;15.554;2023-05-01T10:43:30;10.00;;;3.90;;
59072;SDS011;44859;51.934;15.554;2023-05-01T10:48:54;10.30;;;4.40;;
59072;SDS011;44859;51.934;15.554;2023-05-01T10:51:23;11.20;;;4.10;;
59072;SDS011;44859;51.934;15.554;2023-05-01T10:56:49;10.70;;;4.10;;
59072;SDS011;44859;51.934;15.554;2023-05-01T10:59:21;12.10;;;4.50;;
59072;SDS011;44859;51.934;15.554;2023-05-01T11:01:50;11.10;;;4.60;;
59072;SDS011;44859;51.934;15.554;2023-05-01T11:04:49;12.20;;;4.50;;
59072;SDS011;44859;51.934;15.554;2023-05-01T11:07:20;12.80;;;4.40;;
59072;SDS011;44859;51.934;15.554;2023-05-01T11:09:54;11.10;;;4.70;;
59072;SDS011;44859;51.934;15.554;2023-05-01T11:15:26;9.80;;;3.90;;
59072;SDS011;44859;51.934;15.554;2023-05-01T11:17:56;11.90;;;5.50;;
59072;SDS011;44859;51.934;15.554;2023-05-01T11:22:59;9.50;;;4.30;;
59072;SDS011;44859;51.934;15.554;2023-05-01T11:25:30;12.30;;;4.20;;
59072;SDS011;44859;51.934;15.554;2023-05-01T11:28:20;9.50;;;3.90;;
59072;SDS011;44859;51.934;15.554;2023-05-01T11:30:49;11.50;;;4.40;;
59072;SDS011;44859;51.934;15.554;2023-05-01T11:33:28;13.50;;;6.60;;
59072;SDS011;44859;51.934;15.554;2023-05-01T11:35:58;10.80;;;4.60;;
59072;SDS011;44859;51.934;15.554;2023-05-01T11:38:28;10.00;;;4.30;;
59072;SDS011;44859;51.934;15.554;2023-05-01T11:41:06;11.40;;;4.70;;
59072;SDS011;44859;51.934;15.554;2023-05-01T11:43:47;9.70;;;3.70;;
59072;SDS011;44859;51.934;15.554;2023-05-01T11:46:50;10.20;;;3.90;;
59072;SDS011;44859;51.934;15.554;2023-05-01T11:49:29;11.20;;;3.80;;
59072;SDS011;44859;51.934;15.554;2023-05-01T11:52:00;9.60;;;3.60;;
59072;SDS011;44859;51.934;15.554;2023-05-01T11:54:29;12.10;;;4.40;;
59072;SDS011;44859;51.934;15.554;2023-05-01T11:57:07;9.00;;;3.90;;
59072;SDS011;44859;51.934;15.554;2023-05-01T11:59:36;9.60;;;4.00;;
59072;SDS011;44859;51.934;15.554;2023-05-01T12:04:45;10.90;;;4.40;;
59072;SDS011;44859;51.934;15.554;2023-05-01T12:07:29;11.90;;;4.20;;
59072;SDS011;44859;51.934;15.554;2023-05-01T12:09:57;9.50;;;3.80;;
59072;SDS011;44859;51.934;15.554;2023-05-01T12:12:30;8.50;;;4.00;;
59072;SDS011;44859;51.934;15.554;2023-05-01T12:15:00;10.70;;;4.00;;
59072;SDS011;44859;51.934;15.554;2023-05-01T12:17:33;8.90;;;4.10;;
59072;SDS011;44859;51.934;15.554;2023-05-01T12:20:01;11.00;;;4.10;;
59072;SDS011;44859;51.934;15.554;2023-05-01T12:22:53;10.30;;;4.60;;
59072;SDS011;44859;51.934;15.554;2023-05-01T12:25:32;15.30;;;7.50;;
59072;SDS011;44859;51.934;15.554;2023-05-01T12:28:23;13.60;;;6.40;;
59072;SDS011;44859;51.934;15.554;2023-05-01T12:31:08;11.20;;;4.60;;
59072;SDS011;44859;51.934;15.554;2023-05-01T12:33:40;9.90;;;3.90;;
59072;SDS011;44859;51.934;15.554;2023-05-01T12:36:20;8.80;;;3.70;;
59072;SDS011;44859;51.934;15.554;2023-05-01T12:42:12;9.10;;;4.10;;
59072;SDS011;44859;51.934;15.554;2023-05-01T12:44:47;15.10;;;5.70;;
59072;SDS011;44859;51.934;15.554;2023-05-01T12:47:47;10.00;;;4.10;;
59072;SDS011;44859;51.934;15.554;2023-05-01T12:50:17;10.60;;;4.30;;
59072;SDS011;44859;51.934;15.554;2023-05-01T12:52:49;8.80;;;4.00;;
59072;SDS011;44859;51.934;15.554;2023-05-01T12:55:41;12.00;;;4.40;;
59072;SDS011;44859;51.934;15.554;2023-05-01T12:58:13;8.80;;;3.60;;
59072;SDS011;44859;51.934;15.554;2023-05-01T13:00:44;8.70;;;3.90;;
59072;SDS011;44859;51.934;15.554;2023-05-01T13:03:21;10.10;;;3.90;;
59072;SDS011;44859;51.934;15.554;2023-05-01T13:08:51;11.00;;;4.00;;
59072;SDS011;44859;51.934;15.554;2023-05-01T13:11:22;9.30;;;4.20;;
59072;SDS011;44859;51.934;15.554;2023-05-01T13:13:53;17.70;;;8.60;;
59072;SDS011;44859;51.934;15.554;2023-05-01T13:16:22;11.70;;;4.90;;
59072;SDS011;44859;51.934;15.554;2023-05-01T13:18:56;10.70;;;4.30;;
59072;SDS011;44859;51.934;15.554;2023-05-01T13:21:36;9.70;;;4.00;;
59072;SDS011;44859;51.934;15.554;2023-05-01T13:24:23;8.90;;;3.40;;
59072;SDS011;44859;51.934;15.554;2023-05-01T13:27:08;8.90;;;3.60;;
59072;SDS011;44859;51.934;15.554;2023-05-01T13:29:41;8.90;;;3.80;;
59072;SDS011;44859;51.934;15.554;2023-05-01T13:32:28;9.20;;;3.80;;
59072;SDS011;44859;51.934;15.554;2023-05-01T13:35:01;10.40;;;3.50;;
59072;SDS011;44859;51.934;15.554;2023-05-01T13:37:32;8.20;;;3.60;;
59072;SDS011;44859;51.934;15.554;2023-05-01T13:43:04;12.40;;;4.10;;
59072;SDS011;44859;51.934;15.554;2023-05-01T13:45:47;9.40;;;4.00;;
59072;SDS011;44859;51.934;15.554;2023-05-01T13:48:25;9.00;;;3.90;;
59072;SDS011;44859;51.934;15.554;2023-05-01T13:50:53;8.80;;;4.10;;
59072;SDS011;44859;51.934;15.554;2023-05-01T13:53:22;11.00;;;4.20;;
59072;SDS011;44859;51.934;15.554;2023-05-01T13:55:51;9.80;;;3.80;;
59072;SDS011;44859;51.934;15.554;2023-05-01T13:58:40;7.90;;;3.70;;
59072;SDS011;44859;51.934;15.554;2023-05-01T14:01:30;8.40;;;3.60;;
59072;SDS011;44859;51.934;15.554;2023-05-01T14:04:02;8.80;;;4.00;;
59072;SDS011;44859;51.934;15.554;2023-05-01T14:06:31;15.70;;;6.40;;
59072;SDS011;44859;51.934;15.554;2023-05-01T14:09:06;9.60;;;3.70;;
59072;SDS011;44859;51.934;15.554;2023-05-01T14:11:49;8.10;;;3.20;;
59072;SDS011;44859;51.934;15.554;2023-05-01T14:14:18;10.70;;;4.20;;
59072;SDS011;44859;51.934;15.554;2023-05-01T14:16:50;8.30;;;3.60;;
59072;SDS011;44859;51.934;15.554;2023-05-01T14:19:22;8.20;;;3.50;;
59072;SDS011;44859;51.934;15.554;2023-05-01T14:21:52;9.60;;;3.50;;
59072;SDS011;44859;51.934;15.554;2023-05-01T14:24:28;8.50;;;3.60;;
59072;SDS011;44859;51.934;15.554;2023-05-01T14:26:58;8.10;;;3.50;;
59072;SDS011;44859;51.934;15.554;2023-05-01T14:29:30;15.70;;;7.80;;
59072;SDS011;44859;51.934;15.554;2023-05-01T14:32:04;9.60;;;3.60;;
59072;SDS011;44859;51.934;15.554;2023-05-01T14:34:44;7.10;;;3.50;;
59072;SDS011;44859;51.934;15.554;2023-05-01T14:37:16;7.80;;;3.10;;
59072;SDS011;44859;51.934;15.554;2023-05-01T14:39:45;8.20;;;3.50;;
59072;SDS011;44859;51.934;15.554;2023-05-01T14:42:17;8.40;;;3.30;;
59072;SDS011;44859;51.934;15.554;2023-05-01T14:44:45;8.10;;;3.60;;
59072;SDS011;44859;51.934;15.554;2023-05-01T14:47:17;6.60;;;3.00;;
59072;SDS011;44859;51.934;15.554;2023-05-01T14:49:50;6.40;;;3.20;;
59072;SDS011;44859;51.934;15.554;2023-05-01T14:52:28;7.60;;;3.50;;
59072;SDS011;44859;51.934;15.554;2023-05-01T14:55:00;9.60;;;3.50;;
59072;SDS011;44859;51.934;15.554;2023-05-01T14:57:28;8.10;;;3.10;;
59072;SDS011;44859;51.934;15.554;2023-05-01T15:00:02;10.70;;;3.60;;
59072;SDS011;44859;51.934;15.554;2023-05-01T15:02:32;9.50;;;3.60;;
59072;SDS011;44859;51.934;15.554;2023-05-01T15:05:01;8.70;;;4.30;;
59072;SDS011;44859;51.934;15.554;2023-05-01T15:07:53;7.90;;;3.50;;
59072;SDS011;44859;51.934;15.554;2023-05-01T15:10:26;9.20;;;3.40;;
59072;SDS011;44859;51.934;15.554;2023-05-01T15:12:56;6.50;;;3.30;;
59072;SDS011;44859;51.934;15.554;2023-05-01T15:15:39;7.80;;;3.30;;
59072;SDS011;44859;51.934;15.554;2023-05-01T15:18:07;6.80;;;3.60;;
59072;SDS011;44859;51.934;15.554;2023-05-01T15:20:36;8.90;;;3.10;;
59072;SDS011;44859;51.934;15.554;2023-05-01T15:23:08;8.40;;;3.70;;
59072;SDS011;44859;51.934;15.554;2023-05-01T15:25:43;10.70;;;3.90;;
59072;SDS011;44859;51.934;15.554;2023-05-01T15:28:12;7.90;;;3.30;;
59072;SDS011;44859;51.934;15.554;2023-05-01T15:30:50;9.50;;;3.40;;
59072;SDS011;44859;51.934;15.554;2023-05-01T15:33:19;7.40;;;3.30;;
59072;SDS011;44859;51.934;15.554;2023-05-01T15:35:57;8.00;;;3.40;;
59072;SDS011;44859;51.934;15.554;2023-05-01T15:38:26;7.80;;;3.70;;
59072;SDS011;44859;51.934;15.554;2023-05-01T15:40:55;8.60;;;3.50;;
59072;SDS011;44859;51.934;15.554;2023-05-01T15:43:29;9.80;;;3.70;;
59072;SDS011;44859;51.934;15.554;2023-05-01T15:45:58;8.40;;;3.60;;
59072;SDS011;44859;51.934;15.554;2023-05-01T15:51:24;6.50;;;3.10;;
59072;SDS011;44859;51.934;15.554;2023-05-01T15:53:53;9.70;;;3.80;;
59072;SDS011;44859;51.934;15.554;2023-05-01T15:56:34;9.30;;;3.70;;
59072;SDS011;44859;51.934;15.554;2023-05-01T15:59:09;8.80;;;3.70;;
59072;SDS011;44859;51.934;15.554;2023-05-01T16:01:55;7.20;;;3.70;;
59072;SDS011;44859;51.934;15.554;2023-05-01T16:04:24;6.90;;;3.40;;
59072;SDS011;44859;51.934;15.554;2023-05-01T16:06:53;9.70;;;3.60;;
59072;SDS011;44859;51.934;15.554;2023-05-01T16:09:24;7.60;;;3.40;;
59072;SDS011;44859;51.934;15.554;2023-05-01T16:12:26;8.00;;;3.30;;
59072;SDS011;44859;51.934;15.554;2023-05-01T16:14:59;35.60;;;23.20;;
59072;SDS011;44859;51.934;15.554;2023-05-01T16:17:30;9.90;;;3.90;;
59072;SDS011;44859;51.934;15.554;2023-05-01T16:20:32;9.30;;;3.20;;
59072;SDS011;44859;51.934;15.554;2023-05-01T16:23:02;8.80;;;3.70;;
59072;SDS011;44859;51.934;15.554;2023-05-01T16:25:31;8.30;;;3.40;;
59072;SDS011;44859;51.934;15.554;2023-05-01T16:27:59;11.30;;;3.50;;
59072;SDS011;44859;51.934;15.554;2023-05-01T16:30:43;8.10;;;3.50;;
59072;SDS011;44859;51.934;15.554;2023-05-01T16:33:16;9.00;;;3.70;;
59072;SDS011;44859;51.934;15.554;2023-05-01T16:35:46;12.20;;;4.20;;
59072;SDS011;44859;51.934;15.554;2023-05-01T16:38:16;8.30;;;3.50;;
59072;SDS011;44859;51.934;15.554;2023-05-01T16:40:48;9.10;;;3.30;;
59072;SDS011;44859;51.934;15.554;2023-05-01T16:43:22;7.20;;;3.30;;
59072;SDS011;44859;51.934;15.554;2023-05-01T16:45:52;7.70;;;3.60;;
59072;SDS011;44859;51.934;15.554;2023-05-01T16:48:22;7.90;;;3.40;;
59072;SDS011;44859;51.934;15.554;2023-05-01T16:50:51;12.40;;;5.90;;
59072;SDS011;44859;51.934;15.554;2023-05-01T16:53:19;16.20;;;8.60;;